createdAt,value
2017-08-08T00:01:39.183Z,21.70
2017-08-08T00:04:06.747Z,21.80
2017-08-08T00:06:34.274Z,21.80
2017-08-08T00:09:01.817Z,21.80
2017-08-08T00:11:29.355Z,21.80
2017-08-08T00:13:56.935Z,21.90
2017-08-08T00:16:25.265Z,21.90
2017-08-08T00:18:52.771Z,21.90
2017-08-08T00:21:21.080Z,21.90
2017-08-08T00:23:48.590Z,21.90
2017-08-08T00:26:16.126Z,21.80
2017-08-08T00:28:43.658Z,21.80
2017-08-08T00:31:11.205Z,21.70
2017-08-08T00:33:38.711Z,21.70
2017-08-08T00:36:06.274Z,21.70
2017-08-08T00:38:33.962Z,21.70
2017-08-08T00:41:01.510Z,21.70
2017-08-08T00:43:29.834Z,21.60
2017-08-08T00:45:57.366Z,21.60
2017-08-08T00:48:25.650Z,21.40
2017-08-08T00:50:53.951Z,21.30
2017-08-08T00:53:21.475Z,21.30
2017-08-08T00:55:49.810Z,21.30
2017-08-08T00:58:17.329Z,21.30
2017-08-08T01:00:44.885Z,21.30
2017-08-08T01:03:13.157Z,21.50
2017-08-08T01:05:40.749Z,21.40
2017-08-08T01:08:08.263Z,21.50
2017-08-08T01:10:35.843Z,21.50
2017-08-08T01:13:04.165Z,21.30
2017-08-08T01:15:31.686Z,21.30
2017-08-08T01:17:59.203Z,21.30
2017-08-08T01:20:26.735Z,21.20
2017-08-08T01:22:54.322Z,21.30
2017-08-08T01:25:21.870Z,21.20
2017-08-08T01:27:49.390Z,21.30
2017-08-08T01:30:16.985Z,21.10
2017-08-08T01:32:44.490Z,21.00
2017-08-08T01:35:12.055Z,21.00
2017-08-08T01:37:40.350Z,21.00
2017-08-08T01:40:07.952Z,21.00
2017-08-08T01:42:35.474Z,21.00
2017-08-08T01:45:03.012Z,20.90
2017-08-08T01:47:30.546Z,20.90
2017-08-08T01:49:58.110Z,20.80
2017-08-08T01:52:25.613Z,20.60
2017-08-08T01:54:53.172Z,20.60
2017-08-08T01:57:20.738Z,20.60
2017-08-08T01:59:48.281Z,20.40
2017-08-08T02:02:15.908Z,20.40
2017-08-08T02:04:43.428Z,20.50
2017-08-08T02:07:10.967Z,20.50
2017-08-08T02:09:38.499Z,20.40
2017-08-08T02:12:06.051Z,20.40
2017-08-08T02:14:33.569Z,20.30
2017-08-08T02:17:01.133Z,20.40
2017-08-08T02:19:28.630Z,20.60
2017-08-08T02:21:56.192Z,20.40
2017-08-08T02:24:23.791Z,20.50
2017-08-08T02:26:51.405Z,20.50
2017-08-08T02:29:18.934Z,20.60
2017-08-08T02:31:46.488Z,20.60
2017-08-08T02:34:14.005Z,20.60
2017-08-08T02:36:42.290Z,20.60
2017-08-08T02:39:09.807Z,20.60
2017-08-08T02:41:37.362Z,20.60
2017-08-08T02:44:05.974Z,20.60
2017-08-08T02:46:33.519Z,20.70
2017-08-08T02:49:01.038Z,20.80
2017-08-08T02:51:28.627Z,20.70
2017-08-08T02:53:56.130Z,20.50
2017-08-08T02:56:23.654Z,20.50
2017-08-08T02:58:51.176Z,20.60
2017-08-08T03:01:18.704Z,20.50
2017-08-08T03:03:46.250Z,20.60
2017-08-08T03:06:13.828Z,20.50
2017-08-08T03:08:41.367Z,20.40
2017-08-08T03:11:08.895Z,20.50
2017-08-08T03:13:36.410Z,20.60
2017-08-08T03:16:03.949Z,20.50
2017-08-08T03:18:31.502Z,20.50
2017-08-08T03:20:59.042Z,20.50
2017-08-08T03:23:26.566Z,20.60
2017-08-08T03:25:54.085Z,20.50
2017-08-08T03:28:21.727Z,20.60
2017-08-08T03:30:49.283Z,20.60
2017-08-08T03:33:16.874Z,20.50
2017-08-08T03:35:44.422Z,20.50
2017-08-08T03:38:11.995Z,20.60
2017-08-08T03:40:39.530Z,20.60
2017-08-08T03:43:07.831Z,20.60
2017-08-08T03:45:36.163Z,20.50
2017-08-08T03:48:03.756Z,20.50
2017-08-08T03:50:32.106Z,20.60
2017-08-08T03:52:59.622Z,20.60
2017-08-08T03:55:27.215Z,20.50
2017-08-08T03:57:54.744Z,20.70
2017-08-08T04:00:22.282Z,20.70
2017-08-08T04:02:49.842Z,20.80
2017-08-08T04:05:17.366Z,20.70
2017-08-08T04:07:44.883Z,20.70
2017-08-08T04:10:13.172Z,20.60
2017-08-08T04:12:40.725Z,20.60
2017-08-08T04:15:08.226Z,20.60
2017-08-08T04:17:35.748Z,20.70
2017-08-08T04:20:03.302Z,20.80
2017-08-08T04:22:30.842Z,20.80
2017-08-08T04:24:58.365Z,20.80
2017-08-08T04:27:25.930Z,20.90
2017-08-08T04:29:53.455Z,20.80
2017-08-08T04:32:21.008Z,20.80
2017-08-08T04:34:48.510Z,21.00
2017-08-08T04:37:16.069Z,21.10
2017-08-08T04:39:43.644Z,21.20
2017-08-08T04:42:11.198Z,21.00
2017-08-08T04:44:38.714Z,21.00
2017-08-08T04:47:06.250Z,21.10
2017-08-08T04:49:34.526Z,21.20
2017-08-08T04:52:02.095Z,21.20
2017-08-08T04:54:29.608Z,21.10
2017-08-08T04:56:57.180Z,21.20
2017-08-08T04:59:24.700Z,21.20
2017-08-08T05:01:52.263Z,21.30
2017-08-08T05:04:19.795Z,21.30
2017-08-08T05:06:48.134Z,21.20
2017-08-08T05:09:15.705Z,21.20
2017-08-08T05:11:43.227Z,21.30
2017-08-08T05:14:10.791Z,21.30
2017-08-08T05:16:38.343Z,21.40
2017-08-08T05:19:05.901Z,21.40
2017-08-08T05:21:33.444Z,21.40
2017-08-08T05:24:00.965Z,21.40
2017-08-08T05:26:28.524Z,21.50
2017-08-08T05:28:56.055Z,21.50
2017-08-08T05:31:23.617Z,21.50
2017-08-08T05:33:51.143Z,21.50
2017-08-08T05:36:18.733Z,21.50
2017-08-08T05:38:46.239Z,21.50
2017-08-08T05:41:14.576Z,21.60
2017-08-08T05:43:42.083Z,21.60
2017-08-08T05:46:10.414Z,21.30
2017-08-08T05:48:37.959Z,21.30
2017-08-08T05:51:05.498Z,21.30
2017-08-08T05:53:33.038Z,21.30
2017-08-08T05:56:01.316Z,21.60
2017-08-08T05:58:29.599Z,21.70
2017-08-08T06:00:57.150Z,21.70
2017-08-08T06:03:24.678Z,21.70
2017-08-08T06:05:52.211Z,21.90
2017-08-08T06:08:19.741Z,22.00
2017-08-08T06:10:47.258Z,22.00
2017-08-08T06:13:14.798Z,22.10
2017-08-08T06:15:42.364Z,22.20
2017-08-08T06:18:09.948Z,22.40
2017-08-08T06:20:37.454Z,22.50
2017-08-08T06:23:04.997Z,22.60
2017-08-08T06:25:32.530Z,22.90
2017-08-08T06:28:00.122Z,23.10
2017-08-08T06:30:27.662Z,23.40
2017-08-08T06:32:55.218Z,23.60
2017-08-08T06:35:22.744Z,23.70
2017-08-08T06:37:50.338Z,23.80
2017-08-08T06:40:17.849Z,24.10
2017-08-08T06:42:45.410Z,24.20
2017-08-08T06:45:12.949Z,24.20
2017-08-08T06:47:40.487Z,24.40
2017-08-08T06:50:08.047Z,24.40
2017-08-08T06:52:36.409Z,25.30
2017-08-08T06:55:03.966Z,25.30
2017-08-08T06:57:31.521Z,26.30
2017-08-08T06:59:59.095Z,27.20
2017-08-08T07:02:27.418Z,27.90
2017-08-08T07:04:54.950Z,27.80
2017-08-08T07:07:23.274Z,28.80
2017-08-08T07:09:50.813Z,28.80
2017-08-08T07:12:18.345Z,28.70
2017-08-08T07:14:45.886Z,28.50
2017-08-08T07:17:14.222Z,28.70
2017-08-08T07:19:41.765Z,28.70
2017-08-08T07:22:09.322Z,28.80
2017-08-08T07:24:36.861Z,28.60
2017-08-08T07:27:04.435Z,28.70
2017-08-08T07:29:31.970Z,28.60
2017-08-08T07:32:00.279Z,28.30
2017-08-08T07:34:27.840Z,28.30
2017-08-08T07:36:55.366Z,28.20
2017-08-08T07:39:22.862Z,28.20
2017-08-08T07:41:50.418Z,28.10
2017-08-08T07:44:18.015Z,28.00
2017-08-08T07:46:45.539Z,28.00
2017-08-08T07:49:13.080Z,27.80
2017-08-08T07:51:40.661Z,27.80
2017-08-08T07:54:08.312Z,27.90
2017-08-08T07:56:35.896Z,27.90
2017-08-08T07:59:03.491Z,28.00
2017-08-08T08:01:31.022Z,28.10
2017-08-08T08:03:58.541Z,28.10
2017-08-08T08:06:26.055Z,28.10
2017-08-08T08:08:53.606Z,28.10
2017-08-08T08:11:21.140Z,28.10
2017-08-08T08:13:48.688Z,28.10
2017-08-08T08:16:16.233Z,28.00
2017-08-08T08:18:43.779Z,27.90
2017-08-08T08:21:11.302Z,27.80
2017-08-08T08:23:38.834Z,27.80
2017-08-08T08:26:06.369Z,27.90
2017-08-08T08:28:33.898Z,27.90
2017-08-08T08:31:01.419Z,28.00
2017-08-08T08:33:29.005Z,28.00
2017-08-08T08:35:56.564Z,28.10
2017-08-08T08:38:24.123Z,28.20
2017-08-08T08:40:51.635Z,28.30
2017-08-08T08:43:19.938Z,28.60
2017-08-08T08:45:47.498Z,28.60
2017-08-08T08:48:15.026Z,28.70
2017-08-08T08:50:42.552Z,28.70
2017-08-08T08:53:10.086Z,28.80
2017-08-08T08:55:37.625Z,29.00
2017-08-08T08:58:05.168Z,28.90
2017-08-08T09:00:33.585Z,28.70
2017-08-08T09:03:01.212Z,28.60
2017-08-08T09:05:28.732Z,28.70
2017-08-08T09:08:01.336Z,28.70
2017-08-08T09:10:28.918Z,28.70
2017-08-08T09:12:58.608Z,28.70
2017-08-08T09:15:26.122Z,28.70
2017-08-08T09:17:53.719Z,28.90
2017-08-08T09:20:21.251Z,28.70
2017-08-08T09:22:48.782Z,28.90
2017-08-08T09:25:16.370Z,28.80
2017-08-08T09:27:43.927Z,28.80
2017-08-08T09:30:11.458Z,28.90
2017-08-08T09:32:39.122Z,28.70
2017-08-08T09:35:06.846Z,28.80
2017-08-08T09:37:36.812Z,28.80
2017-08-08T09:40:04.340Z,28.90
2017-08-08T09:42:32.651Z,29.20
2017-08-08T09:45:00.203Z,29.20
2017-08-08T09:47:27.716Z,29.30
2017-08-08T09:49:55.258Z,29.30
2017-08-08T09:52:22.797Z,29.40
2017-08-08T09:54:50.341Z,29.30
2017-08-08T09:57:17.866Z,29.30
2017-08-08T09:59:46.196Z,29.30
2017-08-08T10:02:13.716Z,29.20
2017-08-08T10:04:42.120Z,29.10
2017-08-08T10:07:09.652Z,29.10
2017-08-08T10:09:37.968Z,28.70
2017-08-08T10:12:05.542Z,28.70
2017-08-08T10:14:33.099Z,28.60
2017-08-08T10:17:00.646Z,28.40
2017-08-08T10:19:28.184Z,28.40
2017-08-08T10:21:55.709Z,28.30
2017-08-08T10:24:23.298Z,28.00
2017-08-08T10:26:50.804Z,27.40
2017-08-08T10:29:18.370Z,27.50
2017-08-08T10:31:45.926Z,27.60
2017-08-08T10:34:15.535Z,27.40
2017-08-08T10:36:43.451Z,27.20
2017-08-08T10:39:11.005Z,27.30
2017-08-08T10:41:38.570Z,27.10
2017-08-08T10:44:06.146Z,26.90
2017-08-08T10:46:33.662Z,26.70
2017-08-08T10:49:01.182Z,26.70
2017-08-08T10:51:28.706Z,26.80
2017-08-08T10:53:57.047Z,27.40
2017-08-08T10:56:24.598Z,27.40
2017-08-08T10:58:52.138Z,27.20
2017-08-08T11:01:19.697Z,27.30
2017-08-08T11:03:47.231Z,27.20
2017-08-08T11:06:15.506Z,26.50
2017-08-08T11:08:43.814Z,26.20
2017-08-08T11:11:11.351Z,26.20
2017-08-08T11:13:38.923Z,26.00
2017-08-08T11:16:06.445Z,25.60
2017-08-08T11:18:34.770Z,25.60
2017-08-08T11:21:02.339Z,25.50
2017-08-08T11:23:29.924Z,25.50
2017-08-08T11:25:57.432Z,25.80
2017-08-08T11:28:24.964Z,25.80
2017-08-08T11:30:52.479Z,25.60
2017-08-08T11:33:20.087Z,25.70
2017-08-08T11:35:48.399Z,24.70
2017-08-08T11:38:15.926Z,24.60
2017-08-08T11:40:44.244Z,24.20
2017-08-08T11:43:11.767Z,24.20
2017-08-08T11:45:40.131Z,24.10
2017-08-08T11:48:07.672Z,24.10
2017-08-08T11:50:35.224Z,23.90
2017-08-08T11:53:02.725Z,24.00
2017-08-08T11:55:31.012Z,24.30
2017-08-08T11:57:58.522Z,24.20
2017-08-08T12:00:26.084Z,24.30
2017-08-08T12:02:53.642Z,24.80
2017-08-08T12:05:21.204Z,25.20
2017-08-08T12:07:48.714Z,25.00
2017-08-08T12:10:16.275Z,24.90
2017-08-08T12:12:43.798Z,25.00
2017-08-08T12:15:11.343Z,25.10
2017-08-08T12:17:38.945Z,24.80
2017-08-08T12:20:06.509Z,24.90
2017-08-08T12:22:34.037Z,25.00
2017-08-08T12:25:01.576Z,25.10
2017-08-08T12:27:29.170Z,24.80
2017-08-08T12:29:57.478Z,24.60
2017-08-08T12:32:25.036Z,24.60
2017-08-08T12:34:52.574Z,24.70
2017-08-08T12:37:20.161Z,24.40
2017-08-08T12:39:47.692Z,24.70
2017-08-08T12:42:15.974Z,24.10
2017-08-08T12:44:43.574Z,24.00
2017-08-08T12:47:11.126Z,24.00
2017-08-08T12:49:38.689Z,24.50
2017-08-08T12:52:06.236Z,24.40
2017-08-08T12:54:33.776Z,24.20
2017-08-08T12:57:02.048Z,24.20
2017-08-08T12:59:30.390Z,24.40
2017-08-08T13:01:57.920Z,24.40
2017-08-08T13:04:25.482Z,24.20
2017-08-08T13:06:53.045Z,24.30
2017-08-08T13:09:20.574Z,24.40
2017-08-08T13:11:48.138Z,24.80
2017-08-08T13:14:16.447Z,25.00
2017-08-08T13:16:43.979Z,25.00
2017-08-08T13:19:11.538Z,25.20
2017-08-08T13:21:39.042Z,25.10
2017-08-08T13:24:06.611Z,25.30
2017-08-08T13:26:34.260Z,25.30
2017-08-08T13:29:01.818Z,25.50
2017-08-08T13:31:29.398Z,25.40
2017-08-08T13:33:56.908Z,25.30
2017-08-08T13:36:24.606Z,25.30
2017-08-08T13:38:52.141Z,25.30
2017-08-08T13:41:19.686Z,25.20
2017-08-08T13:43:47.230Z,25.30
2017-08-08T13:46:14.814Z,25.00
2017-08-08T13:48:42.318Z,25.20
2017-08-08T13:51:09.897Z,25.00
2017-08-08T13:53:38.195Z,24.50
2017-08-08T13:56:05.779Z,24.50
2017-08-08T13:58:33.298Z,24.60
2017-08-08T14:01:01.626Z,24.30
2017-08-08T14:03:29.181Z,24.20
2017-08-08T14:05:56.716Z,24.30
2017-08-08T14:08:24.231Z,24.70
2017-08-08T14:10:51.790Z,24.80
2017-08-08T14:13:19.304Z,24.90
2017-08-08T14:15:46.918Z,24.40
2017-08-08T14:18:14.450Z,24.50
2017-08-08T14:20:41.993Z,24.40
2017-08-08T14:23:09.518Z,24.50
2017-08-08T14:25:37.810Z,24.40
2017-08-08T14:28:05.403Z,24.40
2017-08-08T14:30:32.994Z,24.50
2017-08-08T14:33:00.525Z,24.50
2017-08-08T14:35:28.059Z,24.80
2017-08-08T14:37:55.616Z,25.10
2017-08-08T14:40:23.167Z,25.10
2017-08-08T14:42:51.449Z,24.80
2017-08-08T14:45:19.008Z,24.80
2017-08-08T14:47:46.533Z,24.70
2017-08-08T14:50:14.058Z,24.90
2017-08-08T14:52:41.581Z,24.90
2017-08-08T14:55:09.874Z,24.30
2017-08-08T14:57:37.410Z,24.30
2017-08-08T15:00:05.718Z,24.00
2017-08-08T15:02:33.232Z,23.90
2017-08-08T15:05:00.767Z,24.30
2017-08-08T15:07:28.276Z,24.90
2017-08-08T15:09:55.927Z,24.90
2017-08-08T15:12:24.211Z,25.30
2017-08-08T15:14:51.947Z,25.30
2017-08-08T15:17:19.474Z,25.50
2017-08-08T15:19:47.039Z,25.10
2017-08-08T15:22:14.615Z,25.00
2017-08-08T15:24:42.155Z,25.10
2017-08-08T15:27:09.809Z,24.90
2017-08-08T15:29:37.478Z,24.90
2017-08-08T15:32:06.365Z,24.90
2017-08-08T15:34:34.112Z,25.40
2017-08-08T15:37:04.524Z,26.10
2017-08-08T15:39:32.203Z,26.10
2017-08-08T15:42:01.205Z,25.90
2017-08-08T15:44:28.720Z,26.10
2017-08-08T15:46:56.277Z,26.30
2017-08-08T15:49:23.787Z,26.50
2017-08-08T15:51:51.424Z,26.40
2017-08-08T15:54:20.107Z,26.60
2017-08-08T15:56:48.733Z,26.50
2017-08-08T15:59:16.544Z,26.30
2017-08-08T16:01:48.022Z,26.40
2017-08-08T16:04:15.610Z,26.60
2017-08-08T16:06:43.169Z,26.50
2017-08-08T16:09:10.671Z,26.80
2017-08-08T16:11:38.998Z,26.80
2017-08-08T16:14:07.267Z,26.80
2017-08-08T16:16:35.115Z,26.50
2017-08-08T16:19:03.352Z,26.50
2017-08-08T16:21:32.824Z,26.40
2017-08-08T16:24:01.210Z,26.20
2017-08-08T16:26:28.884Z,26.20
2017-08-08T16:28:56.434Z,26.30
2017-08-08T16:31:23.996Z,25.90
2017-08-08T16:33:51.548Z,25.70
2017-08-08T16:36:19.082Z,25.90
2017-08-08T16:38:47.541Z,25.70
2017-08-08T16:41:15.532Z,25.70
2017-08-08T16:43:43.221Z,25.70
2017-08-08T16:46:10.883Z,25.60
2017-08-08T16:48:38.443Z,25.80
2017-08-08T16:51:07.910Z,26.10
2017-08-08T16:53:36.626Z,26.30
2017-08-08T16:56:05.048Z,26.10
2017-08-08T16:58:32.906Z,25.70
2017-08-08T17:01:00.472Z,25.40
2017-08-08T17:03:27.977Z,25.00
2017-08-08T17:05:55.940Z,25.00
2017-08-08T17:08:23.464Z,24.90
2017-08-08T17:10:50.995Z,25.10
2017-08-08T17:13:18.528Z,24.90
2017-08-08T17:15:46.110Z,24.50
2017-08-08T17:18:13.646Z,24.10
2017-08-08T17:20:41.234Z,23.60
2017-08-08T17:23:08.734Z,23.80
2017-08-08T17:25:36.253Z,23.40
2017-08-08T17:28:04.536Z,23.50
2017-08-08T17:30:32.098Z,22.30
2017-08-08T17:32:59.638Z,23.00
2017-08-08T17:35:27.194Z,23.30
2017-08-08T17:37:54.718Z,23.50
2017-08-08T17:40:23.007Z,23.40
2017-08-08T17:42:51.376Z,22.80
2017-08-08T17:45:18.906Z,22.60
2017-08-08T17:47:46.466Z,22.30
2017-08-08T17:50:14.018Z,22.90
2017-08-08T17:52:41.700Z,23.00
2017-08-08T17:55:09.243Z,23.10
2017-08-08T17:57:36.840Z,23.00
2017-08-08T18:00:05.157Z,23.40
2017-08-08T18:02:32.693Z,23.40
2017-08-08T18:05:00.241Z,23.40
2017-08-08T18:07:27.772Z,23.30
2017-08-08T18:09:55.318Z,22.90
2017-08-08T18:12:22.891Z,22.80
2017-08-08T18:14:50.434Z,22.90
2017-08-08T18:17:17.987Z,22.90
2017-08-08T18:19:45.523Z,23.20
2017-08-08T18:22:13.068Z,23.30
2017-08-08T18:24:41.385Z,22.80
2017-08-08T18:27:08.950Z,22.80
2017-08-08T18:29:36.487Z,22.90
2017-08-08T18:32:04.014Z,22.90
2017-08-08T18:34:32.358Z,22.70
2017-08-08T18:36:59.929Z,22.70
2017-08-08T18:39:27.451Z,22.80
2017-08-08T18:41:55.030Z,22.80
2017-08-08T18:44:22.584Z,22.70
2017-08-08T18:46:50.130Z,22.20
2017-08-08T18:49:17.668Z,21.90
2017-08-08T18:51:45.223Z,21.40
2017-08-08T18:54:13.644Z,22.00
2017-08-08T18:56:41.196Z,22.10
2017-08-08T18:59:08.730Z,22.10
2017-08-08T19:01:36.275Z,21.80
2017-08-08T19:04:04.562Z,21.70
2017-08-08T19:06:32.894Z,21.60
2017-08-08T19:09:00.410Z,21.60
2017-08-08T19:11:27.954Z,21.40
2017-08-08T19:13:56.260Z,21.30
2017-08-08T19:16:23.823Z,21.30
2017-08-08T19:18:51.360Z,21.10
2017-08-08T19:21:19.651Z,20.40
2017-08-08T19:23:47.207Z,20.40
2017-08-08T19:26:14.770Z,20.80
2017-08-08T19:28:42.345Z,20.90
2017-08-08T19:31:09.886Z,20.90
2017-08-08T19:33:37.395Z,20.50
2017-08-08T19:36:04.970Z,20.70
2017-08-08T19:38:32.514Z,20.80
2017-08-08T19:41:00.042Z,21.00
2017-08-08T19:43:27.643Z,20.80
2017-08-08T19:45:55.259Z,20.90
2017-08-08T19:48:22.821Z,21.10
2017-08-08T19:50:50.343Z,20.80
2017-08-08T19:53:17.938Z,20.90
2017-08-08T19:55:45.454Z,21.30
2017-08-08T19:58:12.999Z,21.40
2017-08-08T20:00:40.552Z,21.30
2017-08-08T20:03:08.436Z,20.90
2017-08-08T20:05:36.178Z,20.80
2017-08-08T20:08:03.772Z,20.80
2017-08-08T20:10:32.273Z,20.90
2017-08-08T20:13:00.591Z,20.50
2017-08-08T20:15:28.133Z,20.50
2017-08-08T20:17:55.675Z,21.00
2017-08-08T20:20:23.236Z,21.10
2017-08-08T20:22:51.746Z,21.40
2017-08-08T20:25:19.305Z,21.30
2017-08-08T20:27:46.917Z,21.40
2017-08-08T20:30:14.521Z,21.30
2017-08-08T20:32:42.134Z,21.60
2017-08-08T20:35:09.666Z,21.60
2017-08-08T20:37:37.190Z,21.70
2017-08-08T20:40:04.732Z,21.70
2017-08-08T20:42:32.368Z,21.80
2017-08-08T20:44:59.999Z,21.60
2017-08-08T20:47:27.628Z,21.60
2017-08-08T20:49:55.179Z,21.40
2017-08-08T20:52:22.734Z,20.90
2017-08-08T20:54:51.050Z,20.60
2017-08-08T20:57:18.582Z,20.60
2017-08-08T20:59:46.875Z,20.80
2017-08-08T21:02:14.445Z,20.80
2017-08-08T21:04:42.007Z,20.90
2017-08-08T21:07:09.534Z,20.70
2017-08-08T21:09:37.848Z,20.30
2017-08-08T21:12:05.490Z,20.30
2017-08-08T21:14:33.017Z,20.30
2017-08-08T21:17:00.599Z,20.00
2017-08-08T21:19:28.926Z,20.60
2017-08-08T21:21:56.499Z,20.50
2017-08-08T21:24:24.042Z,20.80
2017-08-08T21:26:51.602Z,20.70
2017-08-08T21:29:19.174Z,20.50
2017-08-08T21:31:46.706Z,20.40
2017-08-08T21:34:14.242Z,20.60
2017-08-08T21:36:41.763Z,20.60
2017-08-08T21:39:09.299Z,20.90
2017-08-08T21:41:36.834Z,20.70
2017-08-08T21:44:04.389Z,20.60
2017-08-08T21:46:31.949Z,20.80
2017-08-08T21:48:59.473Z,20.80
2017-08-08T21:51:27.007Z,20.60
2017-08-08T21:53:54.545Z,20.70
2017-08-08T21:56:22.058Z,20.70
2017-08-08T21:58:50.419Z,20.90
2017-08-08T22:01:17.933Z,20.90
2017-08-08T22:03:45.463Z,20.80
2017-08-08T22:06:13.735Z,20.60
2017-08-08T22:08:41.269Z,20.60
2017-08-08T22:11:08.791Z,20.60
2017-08-08T22:13:36.360Z,20.70
2017-08-08T22:16:03.882Z,20.90
2017-08-08T22:18:32.188Z,20.70
2017-08-08T22:20:59.689Z,20.70
2017-08-08T22:23:27.233Z,20.70
2017-08-08T22:25:54.748Z,20.60
2017-08-08T22:28:22.282Z,20.70
2017-08-08T22:30:50.599Z,20.60
2017-08-08T22:33:18.137Z,20.60
2017-08-08T22:35:46.432Z,20.50
2017-08-08T22:38:13.996Z,20.50
2017-08-08T22:40:41.546Z,20.10
2017-08-08T22:43:09.067Z,19.90
2017-08-08T22:45:36.630Z,19.80
2017-08-08T22:48:04.162Z,20.10
2017-08-08T22:50:31.750Z,20.10
2017-08-08T22:52:59.313Z,19.60
2017-08-08T22:55:26.844Z,19.70
2017-08-08T22:57:54.416Z,19.70
2017-08-08T23:00:21.993Z,19.70
2017-08-08T23:02:49.591Z,19.50
2017-08-08T23:05:17.127Z,19.30
2017-08-08T23:07:45.426Z,19.30
2017-08-08T23:10:12.946Z,19.20
2017-08-08T23:12:40.511Z,19.10
2017-08-08T23:15:08.106Z,19.20
2017-08-08T23:17:35.683Z,19.30
2017-08-08T23:20:03.213Z,19.40
2017-08-08T23:22:31.587Z,19.50
2017-08-08T23:24:59.186Z,19.50
2017-08-08T23:27:26.696Z,19.40
2017-08-08T23:29:54.260Z,19.50
2017-08-08T23:32:22.566Z,19.60
2017-08-08T23:34:50.184Z,19.50
2017-08-08T23:37:17.701Z,19.60
2017-08-08T23:39:45.251Z,19.70
2017-08-08T23:42:12.766Z,19.70
2017-08-08T23:44:40.331Z,19.60
2017-08-08T23:47:07.862Z,19.60
2017-08-08T23:49:35.501Z,19.80
2017-08-08T23:52:03.185Z,19.80
2017-08-08T23:54:31.410Z,19.90
2017-08-08T23:56:59.636Z,20.00
2017-08-08T23:59:28.598Z,20.00
